• Join FlightAware (Why Join?)
  • Login
  • US Flag 
12:10PM EDT


 

Airport Tracker/Info


-or-


 

Live Flight TrackerFlight Track Log ✈ N7339F ✈ 19-Jun-2014 ✈ I69 - KLAF

Flight Track Log - Related Links

Times and Time Zones

All times are in EDT time to prevent confusion due to time zone crossing. See the N7339F flight status page for this flight to view local times or setup timezone preferences in your user account.

Time Position Orientation Groundspeed Altitude Reporting Facility
EDT Latitude Longitude Course Direction KTS MPH feet Rate Location/Type
04:35PM 39.0500 -84.2333 218° Southwest 89 102 1,500  Level Cincinnati TRACON
04:36PM 39.0333 -84.2500 218° Southwest 77 89 2,200 540 Climbing Cincinnati TRACON
04:37PM 39.0333 -84.2667 270° West 74 85 2,700 420 Climbing Cincinnati TRACON
04:38PM 39.0500 -84.3000 303° West 77 89 3,100 420 Climbing Cincinnati TRACON
04:39PM 39.0500 -84.3167 270° West 76 87 3,600 480 Climbing Cincinnati TRACON
04:40PM 39.0500 -84.3333 270° West 72 83 4,000 240 Climbing Cincinnati TRACON
04:41PM 39.0581 -84.3550 296° West 74 85 4,000  Level Indianapolis Center
04:42PM 39.0733 -84.3844 304° West 80 92 4,000  Level Indianapolis Center
04:43PM 39.0900 -84.4150 305° West 91 105 4,000  Level Indianapolis Center
04:44PM 39.1069 -84.4475 304° West 99 114 4,000  Level Indianapolis Center
04:45PM 39.1231 -84.4767 305° West 101 116 4,000  Level Indianapolis Center
04:46PM 39.1436 -84.5136 306° West 101 116 4,000  Level Indianapolis Center
04:47PM 39.1625 -84.5478 305° West 106 122 4,000 -60 Level Indianapolis Center
04:48PM 39.1744 -84.5822 294° West 107 123 3,900  Descending Indianapolis Center
04:49PM 39.1839 -84.6133 291° West 106 122 4,000  Climbing Indianapolis Center
04:50PM 39.1953 -84.6475 293° West 103 119 4,000  Level Indianapolis Center
04:51PM 39.2017 -84.6789 285° West 101 116 4,000  Level Indianapolis Center
04:52PM 39.2128 -84.7208 289° West 101 116 4,000  Level Indianapolis Center
04:54PM 39.2272 -84.7817 287° West 118 136 4,000  Level Indianapolis Center
04:55PM 39.2342 -84.8167 284° West 107 123 4,000  Level Indianapolis Center
04:56PM 39.2456 -84.8572 290° West 106 122 4,000  Level Indianapolis Center
04:57PM 39.2536 -84.8900 288° West 101 116 4,000  Level Indianapolis Center
04:58PM 39.2606 -84.9233 285° West 99 114 4,000  Level Indianapolis Center
04:59PM 39.2694 -84.9594 288° West 100 115 4,000  Level Indianapolis Center
05:00PM 39.2786 -84.9958 288° West 102 117 4,000  Level Indianapolis Center
05:01PM 39.2894 -85.0342 290° West 109 125 4,000  Level Indianapolis Center
05:02PM 39.3011 -85.0761 290° West 109 125 4,000  Level Indianapolis Center
05:03PM 39.3086 -85.1114 285° West 107 123 4,000  Level Indianapolis Center
05:04PM 39.3153 -85.1458 284° West 104 120 4,000  Level Indianapolis Center
05:06PM 39.3222 -85.1803 285° West 103 119 4,000  Level Indianapolis Center
05:07PM 39.3317 -85.2133 290° West 102 117 4,000  Level Indianapolis Center
05:08PM 39.3411 -85.2469 290° West 102 117 4,000  Level Indianapolis Center
05:09PM 39.3517 -85.2906 287° West 102 117 4,000  Level Indianapolis Center
05:10PM 39.3594 -85.3281 285° West 103 119 4,000  Level Indianapolis Center
05:11PM 39.3675 -85.3686 284° West 110 127 4,000 -60 Level Indianapolis Center
05:12PM 39.3792 -85.4067 292° West 111 128 3,900  Descending Indianapolis Center
05:13PM 39.3831 -85.4433 278° West 109 125 4,000  Climbing Indianapolis Center
05:14PM 39.4078 -85.4786 312° West 110 127 3,900 -60 Descending Indianapolis Center
05:15PM 39.4286 -85.5044 316° Northwest 109 125 3,900  Level Indianapolis Center
05:16PM 39.4483 -85.5306 314° West 107 123 3,900  Level Indianapolis Center
05:17PM 39.4681 -85.5594 311° West 106 122 3,900  Level Indianapolis Center
05:18PM 39.4881 -85.5864 314° West 106 122 4,000 -420 Climbing Indianapolis Center
05:19PM 39.5089 -85.6128 316° Northwest 105 121 3,100 -540 Descending Indianapolis Center
05:20PM 39.5236 -85.6569 293° West 109 125 2,900 -60 Descending Indianapolis Center
05:21PM 39.5367 -85.6892 298° West 106 122 3,000 60 Climbing Indianapolis Center
05:22PM 39.5486 -85.7203 296° West 101 116 3,100  Climbing Indianapolis Center
05:23PM 39.5650 -85.7550 301° West 104 120 3,000  Descending Indianapolis Center
05:24PM 39.5808 -85.7908 300° West 110 127 3,100  Climbing Indianapolis Center
05:25PM 39.5936 -85.8242 296° West 110 127 3,100  Level Indianapolis Center
05:26PM 39.6086 -85.8658 295° West 109 125 3,100  Level Indianapolis Center
05:27PM 39.6242 -85.8994 301° West 109 125 3,100 60 Level Indianapolis Center
05:28PM 39.6372 -85.9325 297° West 108 124 3,300 300 Climbing Indianapolis Center
05:29PM 39.6506 -85.9636 299° West 106 122 3,800 300 Climbing Indianapolis Center
05:30PM 39.6586 -85.9953 288° West 99 114 4,000 60 Climbing Indianapolis Center
05:31PM 39.6558 -86.0394 265° West 100 115 4,000  Level Indianapolis Center
05:32PM 39.6522 -86.0767 263° West 100 115 4,000 -60 Level Indianapolis Center
05:33PM 39.6517 -86.1117 269° West 99 114 3,900  Descending Indianapolis Center
05:34PM 39.6600 -86.1447 288° West 96 110 4,000  Climbing Indianapolis Center
05:36PM 39.6669 -86.1836 283° West 101 116 4,000  Level Indianapolis Center
05:37PM 39.6819 -86.2183 299° West 110 127 4,000  Level Indianapolis Center
05:38PM 39.7111 -86.2550 316° Northwest 117 135 4,000  Level Indianapolis Center
05:39PM 39.7464 -86.3006 315° West 115 132 4,000  Level Chicago Center
05:40PM 39.7497 -86.3372 277° West 109 125 4,000 -300 Level Chicago Center
05:42PM 39.7489 -86.3861 269° West 110 127 3,400 -600 Descending Chicago Center
05:43PM 39.7486 -86.4300 270° West 116 133 2,800 -720 Descending Chicago Center
05:44PM 39.7706 -86.4547 319° Northwest 117 135 2,000 -840 Descending Chicago Center
05:45PM 39.7633 -86.4753 245° Southwest 99 114 1,100 -540 Descending Chicago Center
05:46PM 39.7419 -86.4775 185° South 87 100 1,000 -120 Descending Chicago Center
05:48PM 39.7865 -86.5076 333° Northwest  Level FlightAware Approximate
05:55PM 39.9534 -86.6209 333° Northwest  Level FlightAware Approximate
05:56PM 39.9772 -86.6372 332° Northwest  Level FlightAware Approximate
05:57PM 40.0011 -86.6534 332° Northwest  Level FlightAware Approximate
05:58PM 40.0249 -86.6697 332° Northwest  Level FlightAware Approximate